createdAt,value
2019-06-15T00:01:45.815Z,6.40
2019-06-15T00:04:19.965Z,4.37
2019-06-15T00:06:53.907Z,8.27
2019-06-15T00:09:29.168Z,7.80
2019-06-15T00:12:02.966Z,7.87
2019-06-15T00:14:36.978Z,3.83
2019-06-15T00:17:10.984Z,6.63
2019-06-15T00:19:44.876Z,7.33
2019-06-15T00:22:18.546Z,5.80
2019-06-15T00:24:54.147Z,4.33
2019-06-15T00:27:28.135Z,8.40
2019-06-15T00:30:01.847Z,3.50
2019-06-15T00:32:37.742Z,9.50
2019-06-15T00:35:12.362Z,5.90
2019-06-15T00:37:46.678Z,4.10
2019-06-15T00:40:20.579Z,7.07
2019-06-15T00:42:54.707Z,4.63
2019-06-15T00:45:28.636Z,3.93
2019-06-15T00:48:02.613Z,6.53
2019-06-15T00:50:36.418Z,3.83
2019-06-15T00:53:10.446Z,7.20
2019-06-15T00:55:44.081Z,4.63
2019-06-15T00:58:17.841Z,5.37
2019-06-15T01:00:51.472Z,5.27
2019-06-15T01:03:26.986Z,4.67
2019-06-15T01:06:00.665Z,6.07
2019-06-15T01:08:34.409Z,9.40
2019-06-15T01:11:08.462Z,9.80
2019-06-15T01:13:43.881Z,4.30
2019-06-15T01:16:17.763Z,8.83
2019-06-15T01:18:51.510Z,6.30
2019-06-15T01:21:25.275Z,7.57
2019-06-15T01:24:00.941Z,8.47
2019-06-15T01:26:34.527Z,10.30
2019-06-15T01:29:08.354Z,4.63
2019-06-15T01:31:42.023Z,7.03
2019-06-15T01:34:15.814Z,7.80
2019-06-15T01:36:52.815Z,6.20
2019-06-15T01:39:26.448Z,5.90
2019-06-15T01:42:00.438Z,8.40
2019-06-15T01:44:35.383Z,7.73
2019-06-15T01:47:09.109Z,17.97
2019-06-15T01:49:42.821Z,6.67
2019-06-15T01:52:17.651Z,13.10
2019-06-15T01:54:51.418Z,8.00
2019-06-15T01:57:25.153Z,10.03
2019-06-15T01:59:58.897Z,9.00
2019-06-15T02:02:32.595Z,10.80
2019-06-15T02:05:06.890Z,14.43
2019-06-15T02:07:42.483Z,8.73
2019-06-15T02:10:19.469Z,8.33
2019-06-15T02:12:53.216Z,9.87
2019-06-15T02:15:29.197Z,7.77
2019-06-15T02:18:02.942Z,9.53
2019-06-15T02:20:36.686Z,7.53
2019-06-15T02:23:10.721Z,13.60
2019-06-15T02:25:46.361Z,8.30
2019-06-15T02:28:20.091Z,15.23
2019-06-15T02:30:54.942Z,8.33
2019-06-15T02:33:28.711Z,10.10
2019-06-15T02:36:02.483Z,12.00
2019-06-15T02:38:36.562Z,10.33
2019-06-15T02:41:10.506Z,7.93
2019-06-15T02:43:44.193Z,10.50
2019-06-15T02:46:17.895Z,15.93
2019-06-15T02:48:51.493Z,9.97
2019-06-15T02:51:25.602Z,15.93
2019-06-15T02:53:59.480Z,10.80
2019-06-15T02:56:33.192Z,10.50
2019-06-15T02:59:07.131Z,12.60
2019-06-15T03:01:41.007Z,7.40
2019-06-15T03:04:15.693Z,7.57
2019-06-15T03:06:50.064Z,14.30
2019-06-15T03:09:25.641Z,9.50
2019-06-15T03:12:01.151Z,13.20
2019-06-15T03:14:36.146Z,16.17
2019-06-15T03:17:09.891Z,20.57
2019-06-15T03:19:43.689Z,22.80
2019-06-15T03:22:17.785Z,22.17
2019-06-15T03:24:51.422Z,25.47
2019-06-15T03:27:28.709Z,19.30
2019-06-15T03:30:02.446Z,16.90
2019-06-15T03:32:36.155Z,17.63
2019-06-15T03:35:11.232Z,16.83
2019-06-15T03:37:46.096Z,19.73
2019-06-15T03:40:21.026Z,17.73
2019-06-15T03:42:55.861Z,16.10
2019-06-15T03:45:30.839Z,15.77
2019-06-15T03:48:04.567Z,15.77
2019-06-15T03:50:38.406Z,16.43
2019-06-15T03:53:12.142Z,16.37
2019-06-15T03:55:46.224Z,15.33
2019-06-15T03:58:19.873Z,19.03
2019-06-15T04:01:18.814Z,20.27
2019-06-15T04:03:52.530Z,16.23
2019-06-15T04:06:27.548Z,19.23
2019-06-15T04:09:03.977Z,13.30
2019-06-15T04:11:38.663Z,21.80
2019-06-15T04:14:12.344Z,22.03
2019-06-15T04:16:50.053Z,14.40
2019-06-15T04:19:25.384Z,19.67
2019-06-15T04:21:59.912Z,17.63
2019-06-15T04:24:34.761Z,21.13
2019-06-15T04:27:08.467Z,14.50
2019-06-15T04:29:45.380Z,17.07
2019-06-15T04:32:19.007Z,21.63
2019-06-15T04:34:53.097Z,14.10
2019-06-15T04:37:27.092Z,19.27
2019-06-15T04:40:00.863Z,17.40
2019-06-15T04:42:37.593Z,16.90
2019-06-15T04:45:12.561Z,22.10
2019-06-15T04:47:47.825Z,18.17
2019-06-15T04:50:23.070Z,23.73
2019-06-15T04:52:56.838Z,16.13
2019-06-15T04:55:30.654Z,17.97
2019-06-15T04:58:04.515Z,28.37
2019-06-15T05:00:38.299Z,24.30
2019-06-15T05:03:12.163Z,28.20
2019-06-15T05:05:47.717Z,15.73
2019-06-15T05:08:21.369Z,20.27
2019-06-15T05:11:00.036Z,27.80
2019-06-15T05:13:32.132Z,22.63
2019-06-15T05:16:05.865Z,29.47
2019-06-15T05:18:39.563Z,29.80
2019-06-15T05:21:13.349Z,26.07
2019-06-15T05:23:47.092Z,29.37
2019-06-15T05:26:20.977Z,24.47
2019-06-15T05:28:54.867Z,27.97
2019-06-15T05:31:28.533Z,25.90
2019-06-15T05:34:02.295Z,26.80
2019-06-15T05:36:36.221Z,31.13
2019-06-15T05:39:10.529Z,21.03
2019-06-15T05:41:44.870Z,29.57
2019-06-15T05:44:20.514Z,27.97
2019-06-15T05:46:54.443Z,25.33
2019-06-15T05:49:28.304Z,22.80
2019-06-15T05:52:01.944Z,35.33
2019-06-15T05:54:35.878Z,25.67
2019-06-15T05:57:21.215Z,30.20
2019-06-15T05:59:46.124Z,30.93
2019-06-15T06:02:24.529Z,26.60
2019-06-15T06:04:56.786Z,30.33
2019-06-15T06:07:30.771Z,42.77
2019-06-15T06:10:05.200Z,26.03
2019-06-15T06:12:39.167Z,29.33
2019-06-15T06:15:15.961Z,27.50
2019-06-15T06:17:49.751Z,39.83
2019-06-15T06:20:23.479Z,30.63
2019-06-15T06:22:57.324Z,31.57
2019-06-15T06:25:32.841Z,29.60
2019-06-15T06:28:06.917Z,30.30
2019-06-15T06:30:40.654Z,36.40
2019-06-15T06:33:14.695Z,34.03
2019-06-15T06:35:48.422Z,31.43
2019-06-15T06:38:24.248Z,39.10
2019-06-15T06:40:58.320Z,33.13
2019-06-15T06:43:35.577Z,32.47
2019-06-15T06:46:09.346Z,32.60
2019-06-15T06:48:44.737Z,32.20
2019-06-15T06:51:19.379Z,30.27
2019-06-15T06:53:53.053Z,29.50
2019-06-15T06:56:26.957Z,25.77
2019-06-15T06:59:00.662Z,36.37
2019-06-15T07:01:34.345Z,37.50
2019-06-15T07:04:08.097Z,32.30
2019-06-15T07:06:41.751Z,36.90
2019-06-15T07:09:15.398Z,32.70
2019-06-15T07:11:50.926Z,30.20
2019-06-15T07:14:24.532Z,31.53
2019-06-15T07:16:58.270Z,31.13
2019-06-15T07:19:31.946Z,31.47
2019-06-15T07:22:05.909Z,32.50
2019-06-15T07:24:39.787Z,28.97
2019-06-15T07:27:13.764Z,38.97
2019-06-15T07:29:47.456Z,38.13
2019-06-15T07:32:21.068Z,31.27
2019-06-15T07:34:55.818Z,28.20
2019-06-15T07:37:29.495Z,31.63
2019-06-15T07:40:05.118Z,26.70
2019-06-15T07:42:39.680Z,26.27
2019-06-15T07:45:14.411Z,28.07
2019-06-15T07:47:49.194Z,30.00
2019-06-15T07:50:22.829Z,26.77
2019-06-15T07:52:58.325Z,25.53
2019-06-15T07:55:32.058Z,27.57
2019-06-15T07:58:05.897Z,25.03
2019-06-15T08:00:39.602Z,26.53
2019-06-15T08:03:13.669Z,20.63
2019-06-15T08:05:47.777Z,33.67
2019-06-15T08:08:22.552Z,21.40
2019-06-15T08:10:56.285Z,26.97
2019-06-15T08:13:31.074Z,22.80
2019-06-15T08:16:04.869Z,21.27
2019-06-15T08:18:38.571Z,39.23
2019-06-15T08:21:13.499Z,25.13
2019-06-15T08:23:47.366Z,31.27
2019-06-15T08:26:21.973Z,25.20
2019-06-15T08:28:55.592Z,28.03
2019-06-15T08:31:29.396Z,25.50
2019-06-15T08:34:03.250Z,22.27
2019-06-15T08:36:37.082Z,32.30
2019-06-15T08:39:12.965Z,27.60
2019-06-15T08:41:46.810Z,27.10
2019-06-15T08:44:21.677Z,26.40
2019-06-15T08:46:59.445Z,27.50
2019-06-15T08:49:33.332Z,22.63
2019-06-15T08:52:07.215Z,21.00
2019-06-15T08:54:43.864Z,24.40
2019-06-15T08:57:17.574Z,20.47
2019-06-15T08:59:53.329Z,23.47
2019-06-15T09:02:30.002Z,19.47
2019-06-15T09:05:05.857Z,21.73
2019-06-15T09:07:39.477Z,20.57
2019-06-15T09:10:15.637Z,21.13
2019-06-15T09:12:50.751Z,20.93
2019-06-15T09:15:57.427Z,18.80
2019-06-15T09:18:34.006Z,19.60
2019-06-15T09:21:07.799Z,20.73
2019-06-15T09:23:43.443Z,16.77
2019-06-15T09:26:17.268Z,18.77
2019-06-15T09:28:51.111Z,16.00
2019-06-15T09:31:25.165Z,15.10
2019-06-15T09:33:58.902Z,14.87
2019-06-15T09:36:34.797Z,11.90
2019-06-15T09:39:09.688Z,15.93
2019-06-15T09:41:43.607Z,15.83
2019-06-15T09:44:17.687Z,15.20
2019-06-15T09:46:53.243Z,17.90
2019-06-15T09:49:27.124Z,14.37
2019-06-15T09:52:02.589Z,16.80
2019-06-15T09:54:37.597Z,15.30
2019-06-15T09:57:11.383Z,17.87
2019-06-15T09:59:45.664Z,12.30
2019-06-15T10:02:19.525Z,13.60
2019-06-15T10:04:55.063Z,11.33
2019-06-15T10:07:28.880Z,11.70
2019-06-15T10:10:04.775Z,16.77
2019-06-15T10:12:38.658Z,10.53
2019-06-15T10:15:15.877Z,16.90
2019-06-15T10:17:49.550Z,10.47
2019-06-15T10:20:23.300Z,11.60
2019-06-15T10:22:57.115Z,12.93
2019-06-15T10:25:31.977Z,11.90
2019-06-15T10:28:07.302Z,13.47
2019-06-15T10:30:41.008Z,9.70
2019-06-15T10:33:16.548Z,10.13
2019-06-15T10:35:50.228Z,7.20
2019-06-15T10:38:26.897Z,8.50
2019-06-15T10:41:00.858Z,11.03
2019-06-15T10:43:34.586Z,14.40
2019-06-15T10:46:08.383Z,8.80
2019-06-15T10:48:42.140Z,8.70
2019-06-15T10:51:15.791Z,9.40
2019-06-15T10:53:49.498Z,13.00
2019-06-15T10:56:23.399Z,12.63
2019-06-15T10:58:59.214Z,11.67
2019-06-15T11:01:32.932Z,11.70
2019-06-15T11:04:07.897Z,10.70
2019-06-15T11:06:42.770Z,11.60
2019-06-15T11:09:16.460Z,13.60
2019-06-15T11:11:50.436Z,10.70
2019-06-15T11:14:24.980Z,11.73
2019-06-15T11:17:01.063Z,11.83
2019-06-15T11:19:36.419Z,14.17
2019-06-15T11:22:10.324Z,15.10
2019-06-15T11:24:43.994Z,13.73
2019-06-15T11:27:18.855Z,13.03
2019-06-15T11:29:52.769Z,14.03
2019-06-15T11:32:26.792Z,10.90
2019-06-15T11:35:03.225Z,10.07
2019-06-15T11:37:36.959Z,13.30
2019-06-15T11:40:12.174Z,15.23
2019-06-15T11:42:49.720Z,10.93
2019-06-15T11:45:23.183Z,10.10
2019-06-15T11:47:57.851Z,10.57
2019-06-15T11:50:31.862Z,9.83
2019-06-15T11:53:05.708Z,9.80
2019-06-15T11:55:41.450Z,11.93
2019-06-15T11:58:15.304Z,9.53
2019-06-15T12:00:50.582Z,11.63
2019-06-15T12:03:24.585Z,12.53
2019-06-15T12:05:58.646Z,13.03
2019-06-15T12:08:32.328Z,14.73
2019-06-15T12:11:06.101Z,12.73
2019-06-15T12:13:39.914Z,19.00
2019-06-15T12:16:13.671Z,14.53
2019-06-15T12:18:47.376Z,20.33
2019-06-15T12:21:22.658Z,19.17
2019-06-15T12:23:58.320Z,18.73
2019-06-15T12:26:32.116Z,18.77
2019-06-15T12:29:09.416Z,20.13
2019-06-15T12:31:43.148Z,15.13
2019-06-15T12:34:16.986Z,15.23
2019-06-15T12:36:50.772Z,16.50
2019-06-15T12:39:24.455Z,19.80
2019-06-15T12:41:58.310Z,15.00
2019-06-15T12:44:33.109Z,14.67
2019-06-15T12:47:06.845Z,14.60
2019-06-15T12:49:40.641Z,10.90
2019-06-15T12:52:14.410Z,14.10
2019-06-15T12:54:48.148Z,14.07
2019-06-15T12:57:21.856Z,11.23
2019-06-15T12:59:55.565Z,9.87
2019-06-15T13:02:29.430Z,10.00
2019-06-15T13:05:03.140Z,9.70
2019-06-15T13:07:36.946Z,10.77
2019-06-15T13:10:11.472Z,10.23
2019-06-15T13:12:45.270Z,11.27
2019-06-15T13:15:20.324Z,10.70
2019-06-15T13:17:55.159Z,8.97
2019-06-15T13:20:32.000Z,9.20
2019-06-15T13:23:06.044Z,8.27
2019-06-15T13:25:39.903Z,11.03
2019-06-15T13:28:13.554Z,9.40
2019-06-15T13:30:47.626Z,8.10
2019-06-15T13:33:21.448Z,6.60
2019-06-15T13:35:55.223Z,10.97
2019-06-15T13:38:28.995Z,5.93
2019-06-15T13:41:03.924Z,5.80
2019-06-15T13:43:37.860Z,10.70
2019-06-15T13:46:11.757Z,6.47
2019-06-15T13:48:45.705Z,10.33
2019-06-15T13:51:19.483Z,4.77
2019-06-15T13:53:53.608Z,8.10
2019-06-15T13:56:27.364Z,7.47
2019-06-15T13:59:01.286Z,5.93
2019-06-15T14:01:36.791Z,8.73
2019-06-15T14:04:10.876Z,6.20
2019-06-15T14:06:46.412Z,5.60
2019-06-15T14:09:23.122Z,4.40
2019-06-15T14:11:56.993Z,5.90
2019-06-15T14:14:30.735Z,14.30
2019-06-15T14:17:04.811Z,3.93
2019-06-15T14:19:39.543Z,8.53
2019-06-15T14:22:13.524Z,10.13
2019-06-15T14:24:48.289Z,4.83
2019-06-15T14:27:22.212Z,6.93
2019-06-15T14:29:56.108Z,4.43
2019-06-15T14:32:30.000Z,5.37
2019-06-15T14:35:03.791Z,5.43
2019-06-15T14:37:38.496Z,6.53
2019-06-15T14:40:12.965Z,4.20
2019-06-15T14:42:46.851Z,7.30
2019-06-15T14:45:21.939Z,6.17
2019-06-15T14:47:55.724Z,7.47
2019-06-15T14:50:30.503Z,12.17
2019-06-15T14:53:04.669Z,6.80
2019-06-15T14:55:38.733Z,6.47
2019-06-15T14:58:13.476Z,12.50
2019-06-15T15:00:47.431Z,5.23
2019-06-15T15:03:21.099Z,4.73
2019-06-15T15:05:56.738Z,4.50
2019-06-15T15:08:30.473Z,6.23
2019-06-15T15:11:06.629Z,5.30
2019-06-15T15:13:40.849Z,8.80
2019-06-15T15:16:17.597Z,5.00
2019-06-15T15:18:52.117Z,5.13
2019-06-15T15:21:26.791Z,6.50
2019-06-15T15:24:00.639Z,6.33
2019-06-15T15:26:36.922Z,5.03
2019-06-15T15:29:09.806Z,4.70
2019-06-15T15:31:46.467Z,3.67
2019-06-15T15:34:21.513Z,3.40
2019-06-15T15:36:58.383Z,2.67
2019-06-15T15:39:32.420Z,3.67
2019-06-15T15:42:06.607Z,3.20
2019-06-15T15:44:43.557Z,3.20
2019-06-15T15:47:17.477Z,3.27
2019-06-15T15:49:51.114Z,3.03
2019-06-15T15:52:27.641Z,3.00
2019-06-15T15:55:02.627Z,2.90
2019-06-15T15:57:36.664Z,3.80
2019-06-15T16:00:11.002Z,4.70
2019-06-15T16:02:51.562Z,2.60
2019-06-15T16:05:20.372Z,3.90
2019-06-15T16:07:56.929Z,7.40
2019-06-15T16:10:32.179Z,3.17
2019-06-15T16:13:06.729Z,3.70
2019-06-15T16:15:40.624Z,3.70
2019-06-15T16:18:17.150Z,3.30
2019-06-15T16:20:51.732Z,3.70
2019-06-15T16:23:27.374Z,2.40
2019-06-15T16:26:03.344Z,4.30
2019-06-15T16:28:37.331Z,5.40
2019-06-15T16:31:14.128Z,4.43
2019-06-15T16:33:48.017Z,4.00
2019-06-15T16:36:24.019Z,4.03
2019-06-15T16:38:58.808Z,2.00
2019-06-15T16:41:36.473Z,1.53
2019-06-15T16:44:10.934Z,1.50
2019-06-15T16:46:44.786Z,2.33
2019-06-15T16:49:20.772Z,0.83
2019-06-15T16:51:56.499Z,5.83
2019-06-15T16:54:31.825Z,2.27
2019-06-15T16:57:06.125Z,1.43
2019-06-15T16:59:40.032Z,0.60
2019-06-15T17:02:17.155Z,0.60
2019-06-15T17:04:52.058Z,4.63
2019-06-15T17:07:27.583Z,1.90
2019-06-15T17:10:01.293Z,4.47
2019-06-15T17:12:37.325Z,2.57
2019-06-15T17:15:12.459Z,1.70
2019-06-15T17:17:46.283Z,3.60
2019-06-15T17:20:26.673Z,4.87
2019-06-15T17:23:00.584Z,1.93
2019-06-15T17:25:36.283Z,2.00
2019-06-15T17:28:11.123Z,7.30
2019-06-15T17:30:45.265Z,5.97
2019-06-15T17:33:33.271Z,1.63
2019-06-15T17:36:02.550Z,4.53
2019-06-15T17:38:30.951Z,4.20
2019-06-15T17:41:04.935Z,1.97
2019-06-15T17:43:38.886Z,11.70
2019-06-15T17:46:12.627Z,3.07
2019-06-15T17:48:46.829Z,0.70
2019-06-15T17:51:20.848Z,1.90
2019-06-15T17:53:56.340Z,1.73
2019-06-15T17:56:30.453Z,0.97
2019-06-15T17:59:06.519Z,6.23
2019-06-15T18:01:40.629Z,3.13
2019-06-15T18:04:16.496Z,1.03
2019-06-15T18:06:49.988Z,1.37
2019-06-15T18:09:25.902Z,2.20
2019-06-15T18:12:00.720Z,1.33
2019-06-15T18:14:36.744Z,1.60
2019-06-15T18:17:10.706Z,2.20
2019-06-15T18:19:46.961Z,1.53
2019-06-15T18:22:20.450Z,1.57
2019-06-15T18:24:56.771Z,2.63
2019-06-15T18:27:37.054Z,2.23
2019-06-15T18:30:10.709Z,1.77
2019-06-15T18:32:46.634Z,1.00
2019-06-15T18:35:20.553Z,1.57
2019-06-15T18:37:55.982Z,2.03
2019-06-15T18:40:31.258Z,5.50
2019-06-15T18:43:07.355Z,1.77
2019-06-15T18:45:40.636Z,2.60
2019-06-15T18:48:16.770Z,3.80
2019-06-15T18:50:50.273Z,1.60
2019-06-15T18:53:23.903Z,1.80
2019-06-15T18:55:57.967Z,2.50
2019-06-15T18:58:32.621Z,3.07
2019-06-15T19:01:07.583Z,1.40
2019-06-15T19:03:42.765Z,3.40
2019-06-15T19:06:16.892Z,2.80
2019-06-15T19:08:53.707Z,3.27
2019-06-15T19:13:47.971Z,2.40
2019-06-15T19:16:22.393Z,1.70
2019-06-15T19:18:56.708Z,3.83
2019-06-15T19:21:30.478Z,1.77
2019-06-15T19:24:07.232Z,1.10
2019-06-15T19:26:41.703Z,1.40
2019-06-15T19:29:17.139Z,1.63
2019-06-15T19:31:54.287Z,1.43
2019-06-15T19:34:43.145Z,3.63
2019-06-15T19:37:06.733Z,3.73
2019-06-15T19:39:40.300Z,7.23
2019-06-15T19:42:14.610Z,1.10
2019-06-15T19:44:51.695Z,1.37
2019-06-15T19:47:26.577Z,1.63
2019-06-15T19:50:00.795Z,3.57
2019-06-15T19:52:38.747Z,3.03
2019-06-15T19:55:16.473Z,1.53
2019-06-15T19:57:52.243Z,2.77
2019-06-15T20:00:27.172Z,3.47
2019-06-15T20:03:02.791Z,1.97
2019-06-15T20:05:37.293Z,1.87
2019-06-15T20:08:13.484Z,1.30
2019-06-15T20:10:47.497Z,2.27
2019-06-15T20:13:21.405Z,2.90
2019-06-15T20:15:57.271Z,1.67
2019-06-15T20:18:32.588Z,2.43
2019-06-15T20:21:08.441Z,1.60
2019-06-15T20:23:42.057Z,5.80
2019-06-15T20:26:16.145Z,3.40
2019-06-15T20:28:51.613Z,2.07
2019-06-15T20:31:27.248Z,6.57
2019-06-15T20:34:00.984Z,2.17
2019-06-15T20:36:39.402Z,2.30
2019-06-15T20:39:16.421Z,2.67
2019-06-15T20:41:51.434Z,2.43
2019-06-15T20:44:26.111Z,2.60
2019-06-15T20:46:59.942Z,2.70
2019-06-15T20:49:33.920Z,2.00
2019-06-15T20:52:07.589Z,4.23
2019-06-15T20:54:43.198Z,6.20
2019-06-15T20:57:17.886Z,3.83
2019-06-15T20:59:56.348Z,2.10
2019-06-15T21:02:29.719Z,3.07
2019-06-15T21:05:03.634Z,3.63
2019-06-15T21:07:38.273Z,14.93
2019-06-15T21:10:16.026Z,6.00
2019-06-15T21:12:50.135Z,4.73
2019-06-15T21:15:28.814Z,3.03
2019-06-15T21:18:03.111Z,3.30
2019-06-15T21:20:36.920Z,2.93
2019-06-15T21:23:11.870Z,3.77
2019-06-15T21:25:46.748Z,3.40
2019-06-15T21:28:20.715Z,3.40
2019-06-15T21:30:55.374Z,5.00
2019-06-15T21:33:29.108Z,4.90
2019-06-15T21:36:02.888Z,3.50
2019-06-15T21:38:36.261Z,2.10
2019-06-15T21:41:11.696Z,2.10
2019-06-15T21:43:47.183Z,2.40
2019-06-15T21:46:20.928Z,2.60
2019-06-15T21:48:56.453Z,2.30
2019-06-15T21:51:36.509Z,1.60
2019-06-15T21:54:09.649Z,1.30
2019-06-15T21:56:43.726Z,1.97
2019-06-15T21:59:19.378Z,1.50
2019-06-15T22:01:53.223Z,1.20
2019-06-15T22:04:27.123Z,3.00
2019-06-15T22:07:02.556Z,5.17
2019-06-15T22:09:36.546Z,2.57
2019-06-15T22:12:10.562Z,2.80
2019-06-15T22:14:46.502Z,1.60
2019-06-15T22:17:20.888Z,1.33
2019-06-15T22:19:56.929Z,1.50
2019-06-15T22:22:32.381Z,1.70
2019-06-15T22:25:07.059Z,2.43
2019-06-15T22:27:40.970Z,1.37
2019-06-15T22:30:16.970Z,5.07
2019-06-15T22:32:51.001Z,2.10
2019-06-15T22:35:26.919Z,2.13
2019-06-15T22:38:00.303Z,3.30
2019-06-15T22:40:36.349Z,1.60
2019-06-15T22:43:09.745Z,2.43
2019-06-15T22:45:46.971Z,3.70
2019-06-15T22:48:19.046Z,2.73
2019-06-15T22:50:53.116Z,3.37
2019-06-15T22:53:28.621Z,5.97
2019-06-15T22:56:02.311Z,2.23
2019-06-15T22:58:36.092Z,7.33
2019-06-15T23:01:10.929Z,2.10
2019-06-15T23:03:46.621Z,1.97
2019-06-15T23:06:34.740Z,3.10
2019-06-15T23:08:58.771Z,2.90
2019-06-15T23:11:32.524Z,2.40
2019-06-15T23:14:06.791Z,2.47
2019-06-15T23:16:40.883Z,3.13
2019-06-15T23:19:17.149Z,1.87
2019-06-15T23:21:52.685Z,6.63
2019-06-15T23:24:27.443Z,2.20
2019-06-15T23:27:01.272Z,1.70
2019-06-15T23:29:37.107Z,2.10
2019-06-15T23:32:10.945Z,1.93
2019-06-15T23:34:44.611Z,2.17
2019-06-15T23:37:20.577Z,4.20
2019-06-15T23:40:11.866Z,3.07
2019-06-15T23:42:47.561Z,5.60
2019-06-15T23:45:23.374Z,2.83
2019-06-15T23:47:57.592Z,3.07
2019-06-15T23:50:32.888Z,1.90
2019-06-15T23:53:06.952Z,1.87
2019-06-15T23:55:43.619Z,2.13
2019-06-15T23:58:18.273Z,3.20
